sensor_id;sensor_type;location;lat;lon;timestamp;pressure;altitude;pressure_sealevel;temperature
73937;BMP180;59249;59.736;30.568;2023-11-21T00:00:14;101306.00;;;-4.10
73937;BMP180;59249;59.736;30.568;2023-11-21T00:02:45;101307.00;;;-4.10
73937;BMP180;59249;59.736;30.568;2023-11-21T00:05:14;101297.00;;;-4.10
73937;BMP180;59249;59.736;30.568;2023-11-21T00:07:45;101303.00;;;-4.20
73937;BMP180;59249;59.736;30.568;2023-11-21T00:10:13;101306.00;;;-4.10
73937;BMP180;59249;59.736;30.568;2023-11-21T00:12:45;101310.00;;;-4.20
73937;BMP180;59249;59.736;30.568;2023-11-21T00:15:15;101313.00;;;-4.20
73937;BMP180;59249;59.736;30.568;2023-11-21T00:17:45;101311.00;;;-4.20
73937;BMP180;59249;59.736;30.568;2023-11-21T00:20:14;101310.00;;;-4.20
73937;BMP180;59249;59.736;30.568;2023-11-21T00:22:45;101320.00;;;-4.10
73937;BMP180;59249;59.736;30.568;2023-11-21T00:25:14;101319.00;;;-4.10
73937;BMP180;59249;59.736;30.568;2023-11-21T00:27:44;101312.00;;;-4.20
73937;BMP180;59249;59.736;30.568;2023-11-21T00:30:14;101322.00;;;-4.20
73937;BMP180;59249;59.736;30.568;2023-11-21T00:32:43;101314.00;;;-4.20
73937;BMP180;59249;59.736;30.568;2023-11-21T00:35:12;101321.00;;;-4.20
73937;BMP180;59249;59.736;30.568;2023-11-21T00:37:41;101318.00;;;-4.30
73937;BMP180;59249;59.736;30.568;2023-11-21T00:40:12;101319.00;;;-4.20
73937;BMP180;59249;59.736;30.568;2023-11-21T00:42:43;101317.00;;;-4.30
73937;BMP180;59249;59.736;30.568;2023-11-21T00:45:13;101338.00;;;-4.30
73937;BMP180;59249;59.736;30.568;2023-11-21T00:47:42;101332.00;;;-4.30
73937;BMP180;59249;59.736;30.568;2023-11-21T00:50:11;101336.00;;;-4.20
73937;BMP180;59249;59.736;30.568;2023-11-21T00:52:40;101339.00;;;-4.10
73937;BMP180;59249;59.736;30.568;2023-11-21T00:55:11;101334.00;;;-4.20
73937;BMP180;59249;59.736;30.568;2023-11-21T00:57:40;101340.00;;;-4.20
73937;BMP180;59249;59.736;30.568;2023-11-21T01:00:10;101336.00;;;-4.10
73937;BMP180;59249;59.736;30.568;2023-11-21T01:02:41;101337.00;;;-4.10
73937;BMP180;59249;59.736;30.568;2023-11-21T01:05:11;101332.00;;;-4.10
73937;BMP180;59249;59.736;30.568;2023-11-21T01:07:40;101340.00;;;-4.10
73937;BMP180;59249;59.736;30.568;2023-11-21T01:10:10;101344.00;;;-4.10
73937;BMP180;59249;59.736;30.568;2023-11-21T01:12:39;101347.00;;;-4.10
73937;BMP180;59249;59.736;30.568;2023-11-21T01:15:08;101347.00;;;-4.00
73937;BMP180;59249;59.736;30.568;2023-11-21T01:17:39;101348.00;;;-3.90
73937;BMP180;59249;59.736;30.568;2023-11-21T01:20:09;101360.00;;;-3.90
73937;BMP180;59249;59.736;30.568;2023-11-21T01:22:41;101352.00;;;-3.90
73937;BMP180;59249;59.736;30.568;2023-11-21T01:25:12;101357.00;;;-4.00
73937;BMP180;59249;59.736;30.568;2023-11-21T01:27:43;101351.00;;;-4.00
73937;BMP180;59249;59.736;30.568;2023-11-21T01:30:12;101360.00;;;-4.00
73937;BMP180;59249;59.736;30.568;2023-11-21T01:32:41;101363.00;;;-4.00
73937;BMP180;59249;59.736;30.568;2023-11-21T01:35:11;101371.00;;;-3.80
73937;BMP180;59249;59.736;30.568;2023-11-21T01:37:40;101366.00;;;-3.90
73937;BMP180;59249;59.736;30.568;2023-11-21T01:40:10;101365.00;;;-3.90
73937;BMP180;59249;59.736;30.568;2023-11-21T01:42:42;101358.00;;;-4.00
73937;BMP180;59249;59.736;30.568;2023-11-21T01:45:12;101355.00;;;-4.00
73937;BMP180;59249;59.736;30.568;2023-11-21T01:47:42;101349.00;;;-4.00
73937;BMP180;59249;59.736;30.568;2023-11-21T01:50:15;101348.00;;;-4.10
73937;BMP180;59249;59.736;30.568;2023-11-21T01:52:46;101343.00;;;-4.10
73937;BMP180;59249;59.736;30.568;2023-11-21T01:55:18;101342.00;;;-4.00
73937;BMP180;59249;59.736;30.568;2023-11-21T01:57:55;101351.00;;;-3.90
73937;BMP180;59249;59.736;30.568;2023-11-21T02:00:25;101359.00;;;-3.90
73937;BMP180;59249;59.736;30.568;2023-11-21T02:02:56;101361.00;;;-3.90
73937;BMP180;59249;59.736;30.568;2023-11-21T02:05:27;101359.00;;;-4.00
73937;BMP180;59249;59.736;30.568;2023-11-21T02:07:59;101351.00;;;-4.10
73937;BMP180;59249;59.736;30.568;2023-11-21T02:10:30;101356.00;;;-4.10
73937;BMP180;59249;59.736;30.568;2023-11-21T02:13:00;101371.00;;;-4.00
73937;BMP180;59249;59.736;30.568;2023-11-21T02:15:31;101375.00;;;-3.90
73937;BMP180;59249;59.736;30.568;2023-11-21T02:18:01;101372.00;;;-3.90
73937;BMP180;59249;59.736;30.568;2023-11-21T02:20:30;101378.00;;;-3.90
73937;BMP180;59249;59.736;30.568;2023-11-21T02:23:05;101380.00;;;-3.90
73937;BMP180;59249;59.736;30.568;2023-11-21T02:25:34;101386.00;;;-3.90
73937;BMP180;59249;59.736;30.568;2023-11-21T02:28:05;101377.00;;;-4.00
73937;BMP180;59249;59.736;30.568;2023-11-21T02:30:36;101373.00;;;-4.00
73937;BMP180;59249;59.736;30.568;2023-11-21T02:33:04;101379.00;;;-4.00
73937;BMP180;59249;59.736;30.568;2023-11-21T02:35:34;101368.00;;;-4.00
73937;BMP180;59249;59.736;30.568;2023-11-21T02:38:04;101385.00;;;-4.10
73937;BMP180;59249;59.736;30.568;2023-11-21T02:40:33;101383.00;;;-4.10
73937;BMP180;59249;59.736;30.568;2023-11-21T02:43:02;101378.00;;;-4.10
73937;BMP180;59249;59.736;30.568;2023-11-21T02:45:33;101388.00;;;-4.00
73937;BMP180;59249;59.736;30.568;2023-11-21T02:48:02;101395.00;;;-3.90
73937;BMP180;59249;59.736;30.568;2023-11-21T02:50:32;101391.00;;;-3.90
73937;BMP180;59249;59.736;30.568;2023-11-21T02:53:02;101372.00;;;-4.00
73937;BMP180;59249;59.736;30.568;2023-11-21T02:55:34;101369.00;;;-4.00
73937;BMP180;59249;59.736;30.568;2023-11-21T02:58:03;101377.00;;;-4.00
73937;BMP180;59249;59.736;30.568;2023-11-21T03:00:34;101379.00;;;-4.10
73937;BMP180;59249;59.736;30.568;2023-11-21T03:03:02;101386.00;;;-4.10
73937;BMP180;59249;59.736;30.568;2023-11-21T03:05:31;101386.00;;;-4.10
73937;BMP180;59249;59.736;30.568;2023-11-21T03:08:02;101393.00;;;-4.20
73937;BMP180;59249;59.736;30.568;2023-11-21T03:10:34;101399.00;;;-4.10
73937;BMP180;59249;59.736;30.568;2023-11-21T03:13:02;101397.00;;;-4.10
73937;BMP180;59249;59.736;30.568;2023-11-21T03:15:31;101392.00;;;-4.10
73937;BMP180;59249;59.736;30.568;2023-11-21T03:18:02;101388.00;;;-4.10
73937;BMP180;59249;59.736;30.568;2023-11-21T03:20:32;101388.00;;;-4.10
73937;BMP180;59249;59.736;30.568;2023-11-21T03:23:02;101387.00;;;-4.20
73937;BMP180;59249;59.736;30.568;2023-11-21T03:25:32;101388.00;;;-4.20
73937;BMP180;59249;59.736;30.568;2023-11-21T03:28:02;101400.00;;;-4.20
73937;BMP180;59249;59.736;30.568;2023-11-21T03:30:31;101399.00;;;-4.20
73937;BMP180;59249;59.736;30.568;2023-11-21T03:33:00;101398.00;;;-4.20
73937;BMP180;59249;59.736;30.568;2023-11-21T03:35:29;101406.00;;;-4.20
73937;BMP180;59249;59.736;30.568;2023-11-21T03:37:58;101401.00;;;-4.20
73937;BMP180;59249;59.736;30.568;2023-11-21T03:40:29;101403.00;;;-4.40
73937;BMP180;59249;59.736;30.568;2023-11-21T03:42:59;101399.00;;;-4.30
73937;BMP180;59249;59.736;30.568;2023-11-21T03:45:28;101399.00;;;-4.30
73937;BMP180;59249;59.736;30.568;2023-11-21T03:47:57;101400.00;;;-4.40
73937;BMP180;59249;59.736;30.568;2023-11-21T03:50:28;101408.00;;;-4.40
73937;BMP180;59249;59.736;30.568;2023-11-21T03:52:58;101405.00;;;-4.50
73937;BMP180;59249;59.736;30.568;2023-11-21T03:55:28;101406.00;;;-4.60
73937;BMP180;59249;59.736;30.568;2023-11-21T03:57:59;101408.00;;;-4.70
73937;BMP180;59249;59.736;30.568;2023-11-21T04:00:28;101406.00;;;-4.70
73937;BMP180;59249;59.736;30.568;2023-11-21T04:02:57;101413.00;;;-4.80
73937;BMP180;59249;59.736;30.568;2023-11-21T04:05:26;101409.00;;;-4.80
73937;BMP180;59249;59.736;30.568;2023-11-21T04:07:56;101406.00;;;-4.90
73937;BMP180;59249;59.736;30.568;2023-11-21T04:10:25;101413.00;;;-5.00
73937;BMP180;59249;59.736;30.568;2023-11-21T04:12:54;101410.00;;;-5.10
73937;BMP180;59249;59.736;30.568;2023-11-21T04:15:24;101438.00;;;-5.10
73937;BMP180;59249;59.736;30.568;2023-11-21T04:17:53;101427.00;;;-5.10
73937;BMP180;59249;59.736;30.568;2023-11-21T04:20:24;101428.00;;;-5.20
73937;BMP180;59249;59.736;30.568;2023-11-21T04:22:53;101446.00;;;-5.10
73937;BMP180;59249;59.736;30.568;2023-11-21T04:25:21;101460.00;;;-5.10
73937;BMP180;59249;59.736;30.568;2023-11-21T04:27:51;101453.00;;;-5.20
73937;BMP180;59249;59.736;30.568;2023-11-21T04:30:21;101459.00;;;-5.30
73937;BMP180;59249;59.736;30.568;2023-11-21T04:32:51;101455.00;;;-5.40
73937;BMP180;59249;59.736;30.568;2023-11-21T04:35:20;101454.00;;;-5.40
73937;BMP180;59249;59.736;30.568;2023-11-21T04:37:49;101462.00;;;-5.50
73937;BMP180;59249;59.736;30.568;2023-11-21T04:40:18;101456.00;;;-5.50
73937;BMP180;59249;59.736;30.568;2023-11-21T04:42:48;101456.00;;;-5.60
73937;BMP180;59249;59.736;30.568;2023-11-21T04:45:17;101456.00;;;-5.70
73937;BMP180;59249;59.736;30.568;2023-11-21T04:47:45;101457.00;;;-5.70
73937;BMP180;59249;59.736;30.568;2023-11-21T04:50:17;101454.00;;;-5.80
73937;BMP180;59249;59.736;30.568;2023-11-21T04:52:46;101451.00;;;-5.80
73937;BMP180;59249;59.736;30.568;2023-11-21T04:55:15;101457.00;;;-5.80
73937;BMP180;59249;59.736;30.568;2023-11-21T04:57:45;101451.00;;;-5.80
73937;BMP180;59249;59.736;30.568;2023-11-21T05:00:17;101458.00;;;-5.90
73937;BMP180;59249;59.736;30.568;2023-11-21T05:02:47;101451.00;;;-5.90
73937;BMP180;59249;59.736;30.568;2023-11-21T05:05:18;101455.00;;;-6.00
73937;BMP180;59249;59.736;30.568;2023-11-21T05:07:47;101461.00;;;-6.00
73937;BMP180;59249;59.736;30.568;2023-11-21T05:10:16;101472.00;;;-6.00
73937;BMP180;59249;59.736;30.568;2023-11-21T05:12:45;101472.00;;;-6.00
73937;BMP180;59249;59.736;30.568;2023-11-21T05:15:15;101479.00;;;-6.10
73937;BMP180;59249;59.736;30.568;2023-11-21T05:17:45;101484.00;;;-6.00
73937;BMP180;59249;59.736;30.568;2023-11-21T05:20:18;101487.00;;;-6.00
73937;BMP180;59249;59.736;30.568;2023-11-21T05:22:48;101494.00;;;-5.90
73937;BMP180;59249;59.736;30.568;2023-11-21T05:25:18;101499.00;;;-6.00
73937;BMP180;59249;59.736;30.568;2023-11-21T05:27:47;101501.00;;;-6.00
73937;BMP180;59249;59.736;30.568;2023-11-21T05:30:16;101507.00;;;-6.00
73937;BMP180;59249;59.736;30.568;2023-11-21T05:32:45;101498.00;;;-6.00
73937;BMP180;59249;59.736;30.568;2023-11-21T05:35:18;101506.00;;;-6.00
73937;BMP180;59249;59.736;30.568;2023-11-21T05:37:48;101510.00;;;-6.00
73937;BMP180;59249;59.736;30.568;2023-11-21T05:40:17;101514.00;;;-6.00
73937;BMP180;59249;59.736;30.568;2023-11-21T05:42:46;101517.00;;;-6.00
73937;BMP180;59249;59.736;30.568;2023-11-21T05:45:15;101534.00;;;-6.00
73937;BMP180;59249;59.736;30.568;2023-11-21T05:47:46;101535.00;;;-6.10
73937;BMP180;59249;59.736;30.568;2023-11-21T05:50:16;101535.00;;;-6.10
73937;BMP180;59249;59.736;30.568;2023-11-21T05:52:47;101534.00;;;-6.10
73937;BMP180;59249;59.736;30.568;2023-11-21T05:55:16;101542.00;;;-6.10
73937;BMP180;59249;59.736;30.568;2023-11-21T05:57:48;101528.00;;;-6.10
73937;BMP180;59249;59.736;30.568;2023-11-21T06:00:17;101544.00;;;-6.10
73937;BMP180;59249;59.736;30.568;2023-11-21T06:02:49;101537.00;;;-6.10
73937;BMP180;59249;59.736;30.568;2023-11-21T06:05:23;101544.00;;;-6.10
73937;BMP180;59249;59.736;30.568;2023-11-21T06:07:54;101547.00;;;-6.10
73937;BMP180;59249;59.736;30.568;2023-11-21T06:10:27;101546.00;;;-6.20
73937;BMP180;59249;59.736;30.568;2023-11-21T06:12:57;101552.00;;;-6.20
73937;BMP180;59249;59.736;30.568;2023-11-21T06:15:30;101553.00;;;-6.20
73937;BMP180;59249;59.736;30.568;2023-11-21T06:17:59;101564.00;;;-6.20
73937;BMP180;59249;59.736;30.568;2023-11-21T06:20:29;101566.00;;;-6.20
73937;BMP180;59249;59.736;30.568;2023-11-21T06:22:58;101558.00;;;-6.20
73937;BMP180;59249;59.736;30.568;2023-11-21T06:25:30;101558.00;;;-6.20
73937;BMP180;59249;59.736;30.568;2023-11-21T06:28:03;101565.00;;;-6.20
73937;BMP180;59249;59.736;30.568;2023-11-21T06:30:33;101573.00;;;-6.20
73937;BMP180;59249;59.736;30.568;2023-11-21T06:33:02;101572.00;;;-6.20
73937;BMP180;59249;59.736;30.568;2023-11-21T06:35:32;101569.00;;;-6.10
73937;BMP180;59249;59.736;30.568;2023-11-21T06:38:02;101584.00;;;-6.20
73937;BMP180;59249;59.736;30.568;2023-11-21T06:40:31;101588.00;;;-6.10
73937;BMP180;59249;59.736;30.568;2023-11-21T06:43:01;101584.00;;;-6.10
73937;BMP180;59249;59.736;30.568;2023-11-21T06:45:29;101591.00;;;-6.10
73937;BMP180;59249;59.736;30.568;2023-11-21T06:47:58;101593.00;;;-6.10
73937;BMP180;59249;59.736;30.568;2023-11-21T06:50:27;101591.00;;;-6.00
73937;BMP180;59249;59.736;30.568;2023-11-21T06:52:57;101601.00;;;-5.90
73937;BMP180;59249;59.736;30.568;2023-11-21T06:55:26;101600.00;;;-5.80
73937;BMP180;59249;59.736;30.568;2023-11-21T06:57:55;101599.00;;;-5.80
73937;BMP180;59249;59.736;30.568;2023-11-21T07:00:25;101598.00;;;-5.80
73937;BMP180;59249;59.736;30.568;2023-11-21T07:02:55;101612.00;;;-5.70
73937;BMP180;59249;59.736;30.568;2023-11-21T07:05:24;101612.00;;;-5.70
73937;BMP180;59249;59.736;30.568;2023-11-21T07:07:53;101625.00;;;-5.70
73937;BMP180;59249;59.736;30.568;2023-11-21T07:10:23;101618.00;;;-5.80
73937;BMP180;59249;59.736;30.568;2023-11-21T07:12:52;101621.00;;;-5.70
73937;BMP180;59249;59.736;30.568;2023-11-21T07:15:21;101618.00;;;-5.70
73937;BMP180;59249;59.736;30.568;2023-11-21T07:17:50;101621.00;;;-5.70
73937;BMP180;59249;59.736;30.568;2023-11-21T07:20:21;101624.00;;;-5.60
73937;BMP180;59249;59.736;30.568;2023-11-21T07:22:50;101627.00;;;-5.60
73937;BMP180;59249;59.736;30.568;2023-11-21T07:25:19;101629.00;;;-5.50
73937;BMP180;59249;59.736;30.568;2023-11-21T07:27:50;101622.00;;;-5.50
73937;BMP180;59249;59.736;30.568;2023-11-21T07:30:20;101625.00;;;-5.50
73937;BMP180;59249;59.736;30.568;2023-11-21T07:32:49;101638.00;;;-5.50
73937;BMP180;59249;59.736;30.568;2023-11-21T07:35:18;101634.00;;;-5.50
73937;BMP180;59249;59.736;30.568;2023-11-21T07:37:47;101637.00;;;-5.40
73937;BMP180;59249;59.736;30.568;2023-11-21T07:40:16;101631.00;;;-5.30
73937;BMP180;59249;59.736;30.568;2023-11-21T07:42:45;101628.00;;;-5.30
73937;BMP180;59249;59.736;30.568;2023-11-21T07:45:16;101635.00;;;-5.20
73937;BMP180;59249;59.736;30.568;2023-11-21T07:47:45;101640.00;;;-5.30
73937;BMP180;59249;59.736;30.568;2023-11-21T07:50:14;101644.00;;;-5.10
73937;BMP180;59249;59.736;30.568;2023-11-21T07:52:43;101642.00;;;-5.30
73937;BMP180;59249;59.736;30.568;2023-11-21T07:55:12;101643.00;;;-5.20
73937;BMP180;59249;59.736;30.568;2023-11-21T07:57:41;101657.00;;;-5.00
73937;BMP180;59249;59.736;30.568;2023-11-21T08:00:11;101658.00;;;-5.00
73937;BMP180;59249;59.736;30.568;2023-11-21T08:02:43;101649.00;;;-5.00
73937;BMP180;59249;59.736;30.568;2023-11-21T08:05:13;101663.00;;;-4.90
73937;BMP180;59249;59.736;30.568;2023-11-21T08:07:54;101658.00;;;-5.00
73937;BMP180;59249;59.736;30.568;2023-11-21T08:10:23;101644.00;;;-5.10
73937;BMP180;59249;59.736;30.568;2023-11-21T08:12:52;101649.00;;;-5.00
73937;BMP180;59249;59.736;30.568;2023-11-21T08:15:21;101652.00;;;-4.90
73937;BMP180;59249;59.736;30.568;2023-11-21T08:17:51;101654.00;;;-4.80
73937;BMP180;59249;59.736;30.568;2023-11-21T08:20:20;101653.00;;;-4.70
73937;BMP180;59249;59.736;30.568;2023-11-21T08:22:50;101649.00;;;-4.70
73937;BMP180;59249;59.736;30.568;2023-11-21T08:25:20;101639.00;;;-4.50
73937;BMP180;59249;59.736;30.568;2023-11-21T08:27:49;101641.00;;;-4.40
73937;BMP180;59249;59.736;30.568;2023-11-21T08:30:33;101632.00;;;-4.30
73937;BMP180;59249;59.736;30.568;2023-11-21T08:33:03;101636.00;;;-4.40
73937;BMP180;59249;59.736;30.568;2023-11-21T08:35:32;101642.00;;;-4.20
73937;BMP180;59249;59.736;30.568;2023-11-21T08:38:01;101646.00;;;-4.10
73937;BMP180;59249;59.736;30.568;2023-11-21T08:40:30;101646.00;;;-4.10
73937;BMP180;59249;59.736;30.568;2023-11-21T08:43:01;101642.00;;;-4.10
73937;BMP180;59249;59.736;30.568;2023-11-21T08:45:32;101645.00;;;-4.10
73937;BMP180;59249;59.736;30.568;2023-11-21T08:48:37;101645.00;;;-4.10
73937;BMP180;59249;59.736;30.568;2023-11-21T08:51:09;101650.00;;;-4.10
73937;BMP180;59249;59.736;30.568;2023-11-21T08:53:39;101648.00;;;-4.10
73937;BMP180;59249;59.736;30.568;2023-11-21T08:56:12;101649.00;;;-3.90
73937;BMP180;59249;59.736;30.568;2023-11-21T08:58:42;101644.00;;;-3.90
73937;BMP180;59249;59.736;30.568;2023-11-21T09:01:11;101643.00;;;-3.90
73937;BMP180;59249;59.736;30.568;2023-11-21T09:03:42;101643.00;;;-3.90
73937;BMP180;59249;59.736;30.568;2023-11-21T09:06:11;101648.00;;;-3.70
73937;BMP180;59249;59.736;30.568;2023-11-21T09:08:41;101652.00;;;-3.70
73937;BMP180;59249;59.736;30.568;2023-11-21T09:11:10;101648.00;;;-3.70
73937;BMP180;59249;59.736;30.568;2023-11-21T09:13:39;101652.00;;;-3.60
73937;BMP180;59249;59.736;30.568;2023-11-21T09:16:08;101644.00;;;-3.50
73937;BMP180;59249;59.736;30.568;2023-11-21T09:18:38;101650.00;;;-3.40
73937;BMP180;59249;59.736;30.568;2023-11-21T09:21:08;101652.00;;;-3.40
73937;BMP180;59249;59.736;30.568;2023-11-21T09:23:37;101658.00;;;-3.20
73937;BMP180;59249;59.736;30.568;2023-11-21T09:26:06;101652.00;;;-3.20
73937;BMP180;59249;59.736;30.568;2023-11-21T09:28:35;101649.00;;;-3.10
73937;BMP180;59249;59.736;30.568;2023-11-21T09:31:04;101654.00;;;-3.10
73937;BMP180;59249;59.736;30.568;2023-11-21T09:33:36;101656.00;;;-3.00
73937;BMP180;59249;59.736;30.568;2023-11-21T09:36:06;101654.00;;;-3.00
73937;BMP180;59249;59.736;30.568;2023-11-21T09:38:42;101658.00;;;-3.00
73937;BMP180;59249;59.736;30.568;2023-11-21T09:41:18;101656.00;;;-3.00
73937;BMP180;59249;59.736;30.568;2023-11-21T09:43:54;101658.00;;;-3.10
73937;BMP180;59249;59.736;30.568;2023-11-21T09:46:28;101658.00;;;-3.10
73937;BMP180;59249;59.736;30.568;2023-11-21T09:48:59;101672.00;;;-3.10
73937;BMP180;59249;59.736;30.568;2023-11-21T09:51:35;101666.00;;;-3.30
73937;BMP180;59249;59.736;30.568;2023-11-21T09:54:06;101662.00;;;-3.20
73937;BMP180;59249;59.736;30.568;2023-11-21T09:56:37;101674.00;;;-3.20
73937;BMP180;59249;59.736;30.568;2023-11-21T09:59:06;101667.00;;;-3.30
73937;BMP180;59249;59.736;30.568;2023-11-21T10:01:38;101668.00;;;-3.30
73937;BMP180;59249;59.736;30.568;2023-11-21T10:04:09;101672.00;;;-3.30
73937;BMP180;59249;59.736;30.568;2023-11-21T10:06:41;101671.00;;;-3.30
73937;BMP180;59249;59.736;30.568;2023-11-21T10:09:10;101675.00;;;-3.40
73937;BMP180;59249;59.736;30.568;2023-11-21T10:11:41;101670.00;;;-3.30
73937;BMP180;59249;59.736;30.568;2023-11-21T10:14:11;101671.00;;;-3.30
73937;BMP180;59249;59.736;30.568;2023-11-21T10:16:41;101661.00;;;-3.40
73937;BMP180;59249;59.736;30.568;2023-11-21T10:19:14;101673.00;;;-3.30
73937;BMP180;59249;59.736;30.568;2023-11-21T10:21:45;101672.00;;;-3.20
73937;BMP180;59249;59.736;30.568;2023-11-21T10:24:14;101669.00;;;-3.10
73937;BMP180;59249;59.736;30.568;2023-11-21T10:26:44;101667.00;;;-3.10
73937;BMP180;59249;59.736;30.568;2023-11-21T10:29:20;101672.00;;;-3.10
73937;BMP180;59249;59.736;30.568;2023-11-21T10:31:50;101680.00;;;-3.10
73937;BMP180;59249;59.736;30.568;2023-11-21T10:34:22;101670.00;;;-3.10
73937;BMP180;59249;59.736;30.568;2023-11-21T10:36:52;101683.00;;;-3.10
73937;BMP180;59249;59.736;30.568;2023-11-21T10:39:25;101682.00;;;-3.10
73937;BMP180;59249;59.736;30.568;2023-11-21T10:41:58;101686.00;;;-3.10
73937;BMP180;59249;59.736;30.568;2023-11-21T10:44:28;101679.00;;;-3.10
73937;BMP180;59249;59.736;30.568;2023-11-21T10:46:56;101675.00;;;-3.00
73937;BMP180;59249;59.736;30.568;2023-11-21T10:49:28;101683.00;;;-2.90
73937;BMP180;59249;59.736;30.568;2023-11-21T10:51:59;101680.00;;;-2.80
73937;BMP180;59249;59.736;30.568;2023-11-21T10:54:28;101682.00;;;-2.80
73937;BMP180;59249;59.736;30.568;2023-11-21T10:56:58;101685.00;;;-2.80
73937;BMP180;59249;59.736;30.568;2023-11-21T10:59:30;101690.00;;;-2.70
73937;BMP180;59249;59.736;30.568;2023-11-21T11:02:01;101694.00;;;-2.60
73937;BMP180;59249;59.736;30.568;2023-11-21T11:04:36;101700.00;;;-2.70
73937;BMP180;59249;59.736;30.568;2023-11-21T11:07:08;101690.00;;;-2.70
73937;BMP180;59249;59.736;30.568;2023-11-21T11:09:41;101692.00;;;-2.80
73937;BMP180;59249;59.736;30.568;2023-11-21T11:12:11;101704.00;;;-2.80
73937;BMP180;59249;59.736;30.568;2023-11-21T11:14:44;101696.00;;;-2.90
73937;BMP180;59249;59.736;30.568;2023-11-21T11:17:15;101700.00;;;-2.90
73937;BMP180;59249;59.736;30.568;2023-11-21T11:19:47;101697.00;;;-2.90
73937;BMP180;59249;59.736;30.568;2023-11-21T11:22:29;101697.00;;;-2.80
73937;BMP180;59249;59.736;30.568;2023-11-21T11:25:30;101700.00;;;-2.80
73937;BMP180;59249;59.736;30.568;2023-11-21T11:28:20;101694.00;;;-2.80
73937;BMP180;59249;59.736;30.568;2023-11-21T11:31:00;101689.00;;;-2.80
73937;BMP180;59249;59.736;30.568;2023-11-21T11:33:41;101697.00;;;-2.90
73937;BMP180;59249;59.736;30.568;2023-11-21T11:36:17;101693.00;;;-3.00
73937;BMP180;59249;59.736;30.568;2023-11-21T11:38:55;101693.00;;;-2.90
73937;BMP180;59249;59.736;30.568;2023-11-21T11:41:25;101694.00;;;-3.00
73937;BMP180;59249;59.736;30.568;2023-11-21T11:43:55;101691.00;;;-3.00
73937;BMP180;59249;59.736;30.568;2023-11-21T11:46:41;101688.00;;;-3.10
73937;BMP180;59249;59.736;30.568;2023-11-21T11:49:23;101684.00;;;-3.00
73937;BMP180;59249;59.736;30.568;2023-11-21T11:55:05;101694.00;;;-3.10
73937;BMP180;59249;59.736;30.568;2023-11-21T11:57:37;101695.00;;;-3.20
73937;BMP180;59249;59.736;30.568;2023-11-21T12:00:11;101709.00;;;-3.20
73937;BMP180;59249;59.736;30.568;2023-11-21T12:02:45;101698.00;;;-3.10
73937;BMP180;59249;59.736;30.568;2023-11-21T12:05:17;101697.00;;;-3.20
73937;BMP180;59249;59.736;30.568;2023-11-21T12:07:49;101696.00;;;-3.10
73937;BMP180;59249;59.736;30.568;2023-11-21T12:10:23;101699.00;;;-3.20
73937;BMP180;59249;59.736;30.568;2023-11-21T12:12:55;101695.00;;;-3.00
73937;BMP180;59249;59.736;30.568;2023-11-21T12:15:25;101705.00;;;-3.10
73937;BMP180;59249;59.736;30.568;2023-11-21T12:17:56;101716.00;;;-3.10
73937;BMP180;59249;59.736;30.568;2023-11-21T12:20:27;101715.00;;;-3.10
73937;BMP180;59249;59.736;30.568;2023-11-21T12:22:58;101706.00;;;-3.00
73937;BMP180;59249;59.736;30.568;2023-11-21T12:25:30;101716.00;;;-3.00
73937;BMP180;59249;59.736;30.568;2023-11-21T12:28:02;101713.00;;;-3.00
73937;BMP180;59249;59.736;30.568;2023-11-21T12:30:33;101729.00;;;-3.10
73937;BMP180;59249;59.736;30.568;2023-11-21T12:33:06;101728.00;;;-3.10
73937;BMP180;59249;59.736;30.568;2023-11-21T12:35:37;101727.00;;;-3.10
73937;BMP180;59249;59.736;30.568;2023-11-21T12:38:07;101730.00;;;-2.90
73937;BMP180;59249;59.736;30.568;2023-11-21T12:40:38;101735.00;;;-3.00
73937;BMP180;59249;59.736;30.568;2023-11-21T12:43:07;101729.00;;;-2.90
73937;BMP180;59249;59.736;30.568;2023-11-21T12:45:36;101732.00;;;-3.00
73937;BMP180;59249;59.736;30.568;2023-11-21T12:48:06;101733.00;;;-3.00
73937;BMP180;59249;59.736;30.568;2023-11-21T12:50:37;101748.00;;;-3.00
73937;BMP180;59249;59.736;30.568;2023-11-21T12:53:08;101745.00;;;-3.00
73937;BMP180;59249;59.736;30.568;2023-11-21T12:55:44;101742.00;;;-2.90
73937;BMP180;59249;59.736;30.568;2023-11-21T12:58:17;101744.00;;;-2.90
73937;BMP180;59249;59.736;30.568;2023-11-21T13:00:50;101736.00;;;-2.80
73937;BMP180;59249;59.736;30.568;2023-11-21T13:03:21;101737.00;;;-2.80
73937;BMP180;59249;59.736;30.568;2023-11-21T13:05:53;101748.00;;;-2.80
73937;BMP180;59249;59.736;30.568;2023-11-21T13:08:25;101739.00;;;-2.80
73937;BMP180;59249;59.736;30.568;2023-11-21T13:10:59;101742.00;;;-2.80
73937;BMP180;59249;59.736;30.568;2023-11-21T13:13:29;101743.00;;;-2.80
73937;BMP180;59249;59.736;30.568;2023-11-21T13:16:00;101749.00;;;-2.80
73937;BMP180;59249;59.736;30.568;2023-11-21T13:18:32;101755.00;;;-2.80
73937;BMP180;59249;59.736;30.568;2023-11-21T13:21:03;101750.00;;;-2.80
73937;BMP180;59249;59.736;30.568;2023-11-21T13:23:37;101747.00;;;-2.70
73937;BMP180;59249;59.736;30.568;2023-11-21T13:26:09;101751.00;;;-2.80
73937;BMP180;59249;59.736;30.568;2023-11-21T13:28:39;101742.00;;;-2.70
73937;BMP180;59249;59.736;30.568;2023-11-21T13:31:13;101745.00;;;-2.70
73937;BMP180;59249;59.736;30.568;2023-11-21T13:33:56;101749.00;;;-2.70
73937;BMP180;59249;59.736;30.568;2023-11-21T13:36:32;101748.00;;;-2.80
73937;BMP180;59249;59.736;30.568;2023-11-21T13:39:03;101742.00;;;-2.70
73937;BMP180;59249;59.736;30.568;2023-11-21T13:41:37;101753.00;;;-2.70
73937;BMP180;59249;59.736;30.568;2023-11-21T13:44:07;101753.00;;;-2.60
73937;BMP180;59249;59.736;30.568;2023-11-21T13:46:43;101764.00;;;-2.70
73937;BMP180;59249;59.736;30.568;2023-11-21T13:49:14;101760.00;;;-2.60
73937;BMP180;59249;59.736;30.568;2023-11-21T13:51:42;101756.00;;;-2.70
73937;BMP180;59249;59.736;30.568;2023-11-21T13:54:15;101762.00;;;-2.70
73937;BMP180;59249;59.736;30.568;2023-11-21T13:56:47;101764.00;;;-2.70
73937;BMP180;59249;59.736;30.568;2023-11-21T13:59:18;101758.00;;;-2.60
73937;BMP180;59249;59.736;30.568;2023-11-21T14:01:51;101768.00;;;-2.60
73937;BMP180;59249;59.736;30.568;2023-11-21T14:04:25;101769.00;;;-2.70
73937;BMP180;59249;59.736;30.568;2023-11-21T14:07:14;101767.00;;;-2.70